Time;durP1;ratioP1;P1;durP2;ratioP2;P2;SDS_P1;SDS_P2;PMS_P1;PMS_P2;Temp;Humidity;BMP_temperature;BMP_pressure;BME280_temperature;BME280_humidity;BME280_pressure;Samples;Min_cycle;Max_cycle;Signal;HPM_P1;HPM_P2
2022/11/28 00:02:14;;;;;;;12.57;8.25;;;6.10;99.90;;;;;;5045068;28;20056;-75
2022/11/28 00:04:40;;;;;;;10.38;8.07;;;5.90;99.90;;;;;;5041888;28;20734;-75
2022/11/28 00:07:05;;;;;;;11.63;8.95;;;6.90;99.90;;;;;;5056254;28;20037;-75
2022/11/28 00:09:31;;;;;;;12.57;8.60;;;5.90;99.90;;;;;;5040869;28;20116;-75
2022/11/28 00:11:57;;;;;;;10.05;8.98;;;5.70;99.90;;;;;;5056895;28;20041;-75
2022/11/28 00:14:22;;;;;;;11.05;8.50;;;5.90;99.90;;;;;;5056860;28;20516;-75
2022/11/28 00:16:48;;;;;;;13.57;8.48;;;5.90;99.90;;;;;;5053243;28;20037;-75
2022/11/28 00:19:14;;;;;;;9.88;8.55;;;5.90;99.90;;;;;;5043747;28;20056;-75
2022/11/28 00:21:40;;;;;;;10.88;8.27;;;5.70;99.90;;;;;;5036330;28;20045;-75
2022/11/28 00:24:06;;;;;;;9.70;8.30;;;5.90;99.90;;;;;;5068137;28;20033;-75
2022/11/28 00:26:38;;;;;;;11.98;8.23;;;5.90;99.90;;;;;;5058263;28;20060;-75
2022/11/28 00:29:06;;;;;;;9.48;7.35;;;5.90;99.90;;;;;;5039051;28;20040;-75
2022/11/28 00:31:34;;;;;;;10.13;7.60;;;5.90;99.90;;;;;;5058586;28;20048;-75
2022/11/28 00:34:01;;;;;;;8.95;8.05;;;5.90;99.90;;;;;;5055297;28;20065;-75
2022/11/28 00:36:28;;;;;;;9.95;8.00;;;6.00;99.90;;;;;;5056218;28;20048;-75
2022/11/28 00:38:54;;;;;;;14.63;7.90;;;6.40;99.90;;;;;;5056071;28;20052;-76
2022/11/28 00:41:25;;;;;;;11.50;6.95;;;7.50;99.90;;;;;;5054781;28;20045;-76
2022/11/28 00:43:52;;;;;;;9.00;7.50;;;5.90;99.90;;;;;;5034145;28;20476;-76
2022/11/28 00:46:19;;;;;;;12.13;8.02;;;5.90;99.90;;;;;;5058813;28;20056;-76
2022/11/28 00:48:45;;;;;;;8.32;6.90;;;5.90;99.90;;;;;;5050288;28;20033;-76
2022/11/28 00:51:16;;;;;;;9.85;7.00;;;7.70;99.90;;;;;;5061678;28;20357;-76
2022/11/28 00:53:46;;;;;;;9.23;7.78;;;5.90;99.90;;;;;;5055108;28;20040;-75
2022/11/28 00:56:13;;;;;;;9.35;7.13;;;5.90;99.90;;;;;;5041514;28;20175;-75
2022/11/28 00:58:39;;;;;;;9.63;7.68;;;5.30;99.90;;;;;;5039251;28;20523;-75
2022/11/28 01:01:08;;;;;;;10.07;7.20;;;5.90;99.90;;;;;;5058017;28;20052;-76
2022/11/28 01:03:34;;;;;;;10.98;7.45;;;7.30;99.90;;;;;;5059994;28;20048;-76
2022/11/28 01:05:59;;;;;;;9.98;7.32;;;5.90;99.90;;;;;;5062049;28;20044;-75
2022/11/28 01:08:26;;;;;;;9.00;7.15;;;7.30;99.90;;;;;;5056835;28;20157;-75
2022/11/28 01:10:52;;;;;;;10.32;7.20;;;5.90;99.90;;;;;;5062459;28;20045;-75
2022/11/28 01:13:17;;;;;;;9.60;7.63;;;7.10;99.90;;;;;;5041353;28;20481;-75
2022/11/28 01:15:43;;;;;;;9.95;6.82;;;5.90;99.90;;;;;;5038607;28;20041;-75
2022/11/28 01:18:09;;;;;;;10.35;7.20;;;5.90;99.90;;;;;;5057525;28;20045;-75
2022/11/28 01:20:34;;;;;;;11.40;7.97;;;5.90;99.90;;;;;;5060948;28;20447;-75
2022/11/28 01:23:00;;;;;;;8.52;6.88;;;5.90;99.90;;;;;;5062025;28;20042;-76
2022/11/28 01:25:26;;;;;;;9.77;7.60;;;5.90;99.90;;;;;;5058335;28;20137;-76
2022/11/28 01:27:51;;;;;;;12.55;7.40;;;5.90;99.90;;;;;;5062092;28;20374;-75
2022/11/28 01:30:17;;;;;;;13.10;8.02;;;5.90;99.90;;;;;;5056605;28;20047;-75
2022/11/28 01:32:43;;;;;;;11.05;8.73;;;5.90;99.90;;;;;;5054503;28;20044;-75
2022/11/28 01:35:09;;;;;;;12.10;7.60;;;6.80;99.90;;;;;;5057885;28;20459;-76
2022/11/28 01:37:35;;;;;;;11.50;7.22;;;5.90;99.90;;;;;;5041146;28;20041;-76
2022/11/28 01:40:00;;;;;;;14.73;8.32;;;6.00;99.90;;;;;;5045226;28;20135;-75
2022/11/28 01:42:26;;;;;;;10.52;7.28;;;6.00;99.90;;;;;;5034281;28;20099;-75
2022/11/28 01:44:52;;;;;;;8.85;7.85;;;6.00;99.90;;;;;;5050633;28;20120;-75
2022/11/28 01:47:22;;;;;;;11.63;7.53;;;6.00;99.90;;;;;;5063927;28;20049;-76
2022/11/28 01:49:48;;;;;;;11.38;8.30;;;6.00;99.90;;;;;;5066990;28;20108;-75
2022/11/28 01:52:17;;;;;;;14.98;7.60;;;7.00;99.90;;;;;;5058216;28;20073;-76
2022/11/28 01:54:47;;;;;;;11.73;8.60;;;5.90;99.90;;;;;;5061163;28;20107;-75
2022/11/28 01:57:17;;;;;;;11.80;8.48;;;6.30;99.90;;;;;;5041377;28;20531;-76
2022/11/28 01:59:56;;;;;;;12.15;8.23;;;6.00;99.90;;;;;;5036867;28;20037;-76
2022/11/28 02:02:32;;;;;;;14.70;8.68;;;6.00;99.90;;;;;;5057431;28;20049;-75
2022/11/28 02:04:58;;;;;;;12.48;8.48;;;7.30;99.90;;;;;;5060037;28;20040;-75
2022/11/28 02:07:24;;;;;;;11.45;8.88;;;6.00;99.90;;;;;;5044984;28;20047;-75
2022/11/28 02:09:49;;;;;;;13.93;9.15;;;7.60;99.90;;;;;;5054002;28;20412;-75
2022/11/28 02:12:25;;;;;;;10.20;8.90;;;6.40;99.90;;;;;;5060763;28;20072;-75
2022/11/28 02:15:19;;;;;;;12.10;8.82;;;6.10;99.90;;;;;;5043181;28;20099;-75
2022/11/28 02:17:54;;;;;;;24.08;10.05;;;6.00;99.90;;;;;;5043361;28;20044;-75
2022/11/28 02:20:49;;;;;;;13.55;9.25;;;6.00;99.90;;;;;;5057113;28;20037;-75
2022/11/28 02:23:27;;;;;;;13.00;9.40;;;6.10;99.90;;;;;;5055840;28;20048;-75
2022/11/28 02:26:18;;;;;;;12.30;10.48;;;6.10;99.90;;;;;;5051852;28;20075;-75
2022/11/28 02:29:15;;;;;;;17.17;10.07;;;6.10;99.90;;;;;;5057121;28;20408;-75
2022/11/28 02:32:05;;;;;;;13.18;11.05;;;6.10;99.90;;;;;;5039788;28;20071;-75
2022/11/28 02:34:44;;;;;;;16.75;10.50;;;7.50;99.90;;;;;;5056476;28;20479;-75
2022/11/28 02:37:32;;;;;;;17.08;10.38;;;6.10;99.90;;;;;;5061845;28;20406;-75
2022/11/28 02:40:34;;;;;;;15.18;11.07;;;6.10;99.90;;;;;;5064425;28;20162;-75
2022/11/28 02:43:19;;;;;;;15.23;10.98;;;6.20;99.90;;;;;;5056740;28;20439;-75
2022/11/28 02:45:49;;;;;;;15.15;12.13;;;6.10;99.90;;;;;;5057498;28;20055;-75
2022/11/28 02:48:25;;;;;;;13.82;11.55;;;6.20;99.90;;;;;;5057557;28;20420;-75
2022/11/28 02:51:10;;;;;;;17.33;11.20;;;5.90;99.90;;;;;;5042308;28;20068;-75
2022/11/28 02:53:36;;;;;;;14.30;11.60;;;6.10;99.90;;;;;;5054674;28;20044;-75
2022/11/28 02:56:03;;;;;;;15.32;11.10;;;6.20;99.90;;;;;;5059486;28;20055;-75
2022/11/28 02:58:29;;;;;;;18.30;11.70;;;6.20;99.90;;;;;;5038450;28;20123;-75
2022/11/28 03:00:55;;;;;;;15.27;11.82;;;6.20;99.90;;;;;;5060055;28;20048;-75
2022/11/28 03:03:57;;;;;;;17.23;10.82;;;6.20;99.90;;;;;;5049038;28;20044;-76
2022/11/28 03:06:31;;;;;;;13.02;10.27;;;6.20;99.90;;;;;;5038027;28;20457;-76
2022/11/28 03:09:27;;;;;;;11.45;10.15;;;6.20;99.90;;;;;;5057944;28;20044;-75
2022/11/28 03:12:20;;;;;;;14.13;11.32;;;6.20;99.90;;;;;;5042155;28;20493;-75
2022/11/28 03:14:51;;;;;;;16.95;10.55;;;6.20;99.90;;;;;;5034492;28;20041;-75
2022/11/28 03:17:31;;;;;;;14.63;11.48;;;6.20;99.90;;;;;;5059746;28;20041;-76
2022/11/28 03:20:11;;;;;;;12.95;10.68;;;6.30;99.90;;;;;;5056902;28;20051;-75
2022/11/28 03:23:10;;;;;;;16.52;12.13;;;6.30;99.90;;;;;;5058425;28;20042;-76
2022/11/28 03:25:56;;;;;;;14.15;11.45;;;6.30;99.90;;;;;;5040054;28;20073;-76
2022/11/28 03:28:33;;;;;;;15.25;10.88;;;6.30;99.90;;;;;;5056309;28;20072;-76
2022/11/28 03:31:41;;;;;;;17.67;11.88;;;6.20;99.90;;;;;;5058227;28;20086;-76
2022/11/28 03:34:10;;;;;;;17.77;12.25;;;6.30;99.90;;;;;;5033409;28;20076;-76
2022/11/28 03:37:06;;;;;;;16.02;11.32;;;6.30;99.90;;;;;;5059240;28;20048;-75
2022/11/28 03:39:33;;;;;;;;;;;6.30;99.90;;;;;;5059862;28;20044;-75
2022/11/28 03:42:30;;;;;;;18.83;12.85;;;6.20;99.90;;;;;;5057010;28;20054;-75
2022/11/28 03:45:11;;;;;;;15.73;11.30;;;6.30;99.90;;;;;;5052184;28;20049;-75
2022/11/28 03:47:42;;;;;;;15.57;12.68;;;6.30;99.90;;;;;;5034321;28;20079;-75
2022/11/28 03:50:15;;;;;;;18.70;13.15;;;6.30;99.90;;;;;;5063363;28;20033;-75
2022/11/28 03:52:46;;;;;;;17.45;12.80;;;6.40;99.90;;;;;;5058286;28;20102;-75
2022/11/28 03:55:24;;;;;;;15.77;13.02;;;6.40;99.90;;;;;;5039669;28;20049;-75
2022/11/28 03:57:55;;;;;;;14.45;12.95;;;6.40;99.90;;;;;;5040017;28;20071;-75
2022/11/28 04:00:21;;;;;;;14.82;12.88;;;6.40;99.90;;;;;;5056312;28;20067;-75
2022/11/28 04:03:02;;;;;;;16.52;13.45;;;6.40;99.90;;;;;;5040519;28;20408;-75
2022/11/28 04:05:36;;;;;;;18.50;12.82;;;6.40;99.90;;;;;;5056020;28;20044;-75
2022/11/28 04:08:16;;;;;;;16.98;13.82;;;6.40;99.90;;;;;;5058989;28;20044;-75
2022/11/28 04:11:07;;;;;;;18.63;13.93;;;6.50;99.90;;;;;;5054095;28;20041;-76
2022/11/28 04:13:41;;;;;;;19.50;14.05;;;6.50;99.90;;;;;;5039710;28;20049;-75
2022/11/28 04:16:13;;;;;;;23.00;14.88;;;6.50;99.90;;;;;;5040703;28;20041;-75
2022/11/28 04:18:47;;;;;;;17.83;15.32;;;6.50;99.90;;;;;;5063332;28;20036;-75
2022/11/28 04:21:28;;;;;;;18.90;14.98;;;6.50;99.90;;;;;;5041697;28;20128;-76
2022/11/28 04:23:59;;;;;;;17.23;14.32;;;6.50;99.90;;;;;;5062808;28;20113;-75
2022/11/28 04:26:39;;;;;;;17.10;14.85;;;6.60;99.90;;;;;;5058851;28;20580;-75
2022/11/28 04:29:09;;;;;;;16.40;14.45;;;6.60;99.90;;;;;;5061059;28;20494;-75
2022/11/28 04:31:38;;;;;;;16.40;13.60;;;6.60;99.90;;;;;;5062091;28;20068;-75
2022/11/28 04:34:07;;;;;;;16.85;14.68;;;6.60;99.90;;;;;;5058925;28;20098;-75
2022/11/28 04:36:37;;;;;;;19.58;15.45;;;8.00;99.90;;;;;;5059901;28;20096;-76
2022/11/28 04:39:07;;;;;;;17.40;14.45;;;6.80;99.90;;;;;;5051970;28;20051;-75
2022/11/28 04:42:01;;;;;;;16.30;14.23;;;6.60;99.90;;;;;;5060947;28;20049;-75
2022/11/28 04:44:46;;;;;;;21.95;14.63;;;6.60;99.90;;;;;;5062716;28;20044;-75
2022/11/28 04:47:12;;;;;;;16.85;14.90;;;6.70;99.90;;;;;;5055493;28;20033;-75
2022/11/28 04:49:38;;;;;;;15.70;14.00;;;6.60;99.90;;;;;;5046789;28;20056;-76
2022/11/28 04:52:34;;;;;;;17.73;14.93;;;6.70;99.90;;;;;;5059781;28;20051;-76
2022/11/28 04:55:23;;;;;;;17.80;14.95;;;6.70;99.90;;;;;;5064744;28;20041;-76
2022/11/28 04:57:53;;;;;;;18.95;15.48;;;6.70;99.90;;;;;;5045458;28;20066;-76
2022/11/28 05:00:22;;;;;;;16.95;14.82;;;6.70;99.90;;;;;;5042641;28;20048;-76
2022/11/28 05:02:52;;;;;;;18.98;14.20;;;6.70;99.90;;;;;;5060168;28;20059;-76
2022/11/28 05:05:24;;;;;;;17.17;15.05;;;6.70;99.90;;;;;;5059617;28;20045;-76
2022/11/28 05:07:50;;;;;;;17.30;14.73;;;8.10;99.90;;;;;;5036618;28;20053;-76
2022/11/28 05:10:17;;;;;;;16.45;14.45;;;6.80;99.90;;;;;;5062408;28;20178;-76
2022/11/28 05:12:44;;;;;;;17.17;14.77;;;8.20;99.90;;;;;;5049865;28;20048;-76
2022/11/28 05:15:10;;;;;;;17.85;14.02;;;8.30;99.90;;;;;;5057101;28;20057;-76
2022/11/28 05:17:37;;;;;;;15.18;13.57;;;6.80;99.90;;;;;;5062583;28;20040;-77
2022/11/28 05:20:04;;;;;;;17.27;13.38;;;6.80;99.90;;;;;;5061005;28;20538;-76
2022/11/28 05:22:31;;;;;;;16.58;14.52;;;6.90;99.90;;;;;;5042454;28;20055;-76
2022/11/28 05:24:58;;;;;;;16.70;14.40;;;7.10;99.90;;;;;;5060421;28;20121;-76
2022/11/28 05:27:23;;;;;;;19.08;15.35;;;6.90;99.90;;;;;;5057101;28;20052;-77
2022/11/28 05:29:49;;;;;;;15.45;12.35;;;6.90;99.90;;;;;;5060884;28;20424;-77
2022/11/28 05:32:15;;;;;;;14.95;13.23;;;8.20;99.90;;;;;;5042987;28;20045;-76
2022/11/28 05:34:41;;;;;;;18.08;13.38;;;8.60;99.90;;;;;;5042426;28;20396;-76
2022/11/28 05:37:06;;;;;;;16.77;12.80;;;6.90;99.90;;;;;;5040228;28;20107;-76
2022/11/28 05:39:32;;;;;;;14.55;12.57;;;6.70;99.90;;;;;;5042506;28;20489;-76
2022/11/28 05:41:58;;;;;;;17.15;13.32;;;6.90;99.90;;;;;;5060942;28;20120;-77
2022/11/28 05:44:24;;;;;;;17.00;13.13;;;6.80;99.90;;;;;;5055482;28;20553;-76
2022/11/28 05:46:50;;;;;;;14.35;12.23;;;7.00;99.90;;;;;;5055796;28;20427;-76
2022/11/28 05:49:16;;;;;;;16.85;12.98;;;7.00;99.90;;;;;;5062317;28;20477;-76
2022/11/28 05:51:42;;;;;;;15.73;12.25;;;7.00;99.90;;;;;;5054458;28;20512;-77
2022/11/28 05:54:07;;;;;;;18.80;12.82;;;6.80;99.90;;;;;;5044645;28;20177;-76
2022/11/28 05:56:33;;;;;;;15.68;11.63;;;8.10;99.90;;;;;;5064712;28;20523;-76
2022/11/28 05:58:59;;;;;;;17.05;12.55;;;7.10;99.90;;;;;;5055492;28;20500;-77
2022/11/28 06:01:27;;;;;;;15.38;11.73;;;7.10;99.90;;;;;;5061635;28;20086;-77
2022/11/28 06:03:58;;;;;;;17.48;13.38;;;7.10;99.90;;;;;;5037241;28;20049;-77
2022/11/28 06:06:25;;;;;;;16.35;13.27;;;7.60;99.90;;;;;;5044987;28;20085;-76
2022/11/28 06:08:51;;;;;;;18.52;12.98;;;7.10;99.90;;;;;;5053907;28;20044;-76
2022/11/28 06:11:18;;;;;;;17.98;12.93;;;7.30;99.90;;;;;;5060561;28;20040;-77
2022/11/28 06:13:45;;;;;;;20.42;13.60;;;7.10;99.90;;;;;;5058334;28;20166;-76
2022/11/28 06:16:14;;;;;;;20.08;13.48;;;7.10;99.90;;;;;;5038148;28;20127;-77
2022/11/28 06:18:40;;;;;;;16.70;13.27;;;7.30;99.90;;;;;;5063644;28;20125;-76
2022/11/28 06:21:08;;;;;;;16.95;12.63;;;8.80;99.90;;;;;;5054125;28;20032;-77
2022/11/28 06:23:34;;;;;;;17.63;13.18;;;8.50;99.90;;;;;;5061698;28;20400;-77
2022/11/28 06:26:12;;;;;;;18.58;12.68;;;7.40;99.90;;;;;;5049716;28;20052;-76
2022/11/28 06:28:40;;;;;;;16.15;12.55;;;7.10;99.90;;;;;;5067892;28;20085;-77
2022/11/28 06:31:12;;;;;;;13.38;11.98;;;8.20;99.90;;;;;;5057182;28;20037;-76
2022/11/28 06:33:38;;;;;;;15.23;11.38;;;7.20;99.90;;;;;;5033404;28;20045;-77
2022/11/28 06:36:05;;;;;;;17.98;13.70;;;7.20;99.90;;;;;;5058877;28;20083;-76
2022/11/28 06:38:31;;;;;;;14.25;11.52;;;7.20;99.90;;;;;;5062461;28;20433;-76
2022/11/28 06:40:59;;;;;;;16.70;12.30;;;7.20;99.90;;;;;;5053813;28;20033;-77
2022/11/28 06:43:27;;;;;;;14.77;11.38;;;7.20;99.90;;;;;;5038904;28;20036;-77
2022/11/28 06:45:53;;;;;;;13.15;10.93;;;6.90;99.90;;;;;;5040129;28;20047;-77
2022/11/28 06:48:19;;;;;;;15.93;11.45;;;7.20;99.90;;;;;;5056477;28;20491;-77
2022/11/28 06:50:45;;;;;;;16.98;11.25;;;7.30;99.90;;;;;;5040819;28;20056;-76
2022/11/28 06:53:11;;;;;;;15.60;12.25;;;7.20;99.90;;;;;;5036602;28;20036;-76
2022/11/28 06:55:37;;;;;;;12.98;10.07;;;7.20;99.90;;;;;;5038301;28;20124;-77
2022/11/28 06:58:02;;;;;;;17.13;11.35;;;8.60;99.90;;;;;;5054679;28;20171;-76
2022/11/28 07:00:28;;;;;;;16.88;11.05;;;7.20;99.90;;;;;;5047221;28;20124;-76
2022/11/28 07:02:54;;;;;;;13.27;10.70;;;7.20;99.90;;;;;;5059549;28;20055;-76
2022/11/28 07:05:21;;;;;;;15.13;10.63;;;7.20;99.90;;;;;;5053756;28;20048;-76
2022/11/28 07:07:47;;;;;;;12.68;10.63;;;7.20;99.90;;;;;;5042969;28;20116;-75
2022/11/28 07:10:13;;;;;;;15.25;9.95;;;7.20;99.90;;;;;;5048384;28;20127;-75
2022/11/28 07:12:39;;;;;;;11.50;10.25;;;7.20;99.90;;;;;;5039014;28;20048;-75
2022/11/28 07:15:08;;;;;;;14.93;11.85;;;7.30;99.90;;;;;;5058713;28;20040;-75
2022/11/28 07:17:34;;;;;;;12.25;10.98;;;7.20;99.90;;;;;;5056100;28;20409;-75
2022/11/28 07:20:00;;;;;;;15.48;10.27;;;7.20;99.90;;;;;;5056972;28;20037;-76
2022/11/28 07:22:25;;;;;;;13.25;10.70;;;7.20;99.90;;;;;;5056516;28;20611;-76
2022/11/28 07:24:51;;;;;;;13.75;9.80;;;8.40;99.90;;;;;;5042727;28;20037;-75
2022/11/28 07:27:17;;;;;;;12.45;9.90;;;7.80;99.90;;;;;;5040072;28;20128;-75
2022/11/28 07:29:43;;;;;;;11.20;8.82;;;7.30;99.90;;;;;;5058948;28;20071;-76
2022/11/28 07:32:09;;;;;;;31.23;22.20;;;7.30;99.90;;;;;;5037779;28;20082;-75
2022/11/28 07:34:34;;;;;;;39.92;28.45;;;7.20;99.90;;;;;;5059756;28;20524;-76
2022/11/28 07:37:00;;;;;;;10.73;9.63;;;7.30;99.90;;;;;;5064658;28;20089;-75
2022/11/28 07:39:26;;;;;;;12.48;9.23;;;8.40;99.90;;;;;;5046873;28;20095;-75
2022/11/28 07:41:52;;;;;;;10.00;8.90;;;7.30;99.90;;;;;;5058737;28;20089;-75
2022/11/28 07:44:17;;;;;;;10.57;8.55;;;7.40;99.90;;;;;;5058369;28;20097;-75
2022/11/28 07:46:46;;;;;;;11.05;8.90;;;7.30;99.90;;;;;;5037895;28;20163;-76
2022/11/28 07:49:13;;;;;;;11.55;9.05;;;7.10;99.90;;;;;;5036476;28;20419;-75
2022/11/28 07:51:40;;;;;;;10.25;8.95;;;7.30;99.90;;;;;;5056484;28;20045;-76
2022/11/28 07:54:06;;;;;;;10.25;9.15;;;7.30;99.90;;;;;;5058073;28;20099;-75
2022/11/28 07:56:35;;;;;;;10.05;8.93;;;7.30;99.90;;;;;;5031549;28;20045;-76
2022/11/28 07:59:01;;;;;;;13.02;9.60;;;7.40;99.90;;;;;;5040508;28;20030;-76
2022/11/28 08:01:30;;;;;;;14.32;10.35;;;7.30;99.90;;;;;;5059769;28;20068;-76
2022/11/28 08:03:56;;;;;;;18.27;12.30;;;7.30;99.90;;;;;;5052222;28;20033;-76
2022/11/28 08:06:26;;;;;;;16.05;11.15;;;7.30;99.90;;;;;;5042698;28;20041;-76
2022/11/28 08:08:52;;;;;;;12.93;11.05;;;7.40;99.90;;;;;;5052130;28;20605;-75
2022/11/28 08:11:20;;;;;;;12.23;10.20;;;7.30;99.90;;;;;;5036019;28;20041;-75
2022/11/28 08:13:46;;;;;;;10.27;9.25;;;7.40;99.90;;;;;;5051719;28;20056;-75
2022/11/28 08:16:14;;;;;;;12.32;10.35;;;7.40;99.90;;;;;;5059519;28;20076;-75
2022/11/28 08:18:41;;;;;;;12.57;9.38;;;7.80;99.90;;;;;;5063984;28;20032;-76
2022/11/28 08:21:10;;;;;;;13.20;10.38;;;7.40;99.90;;;;;;5035958;28;20045;-76
2022/11/28 08:23:36;;;;;;;14.65;11.10;;;7.40;99.90;;;;;;5042484;28;20447;-76
2022/11/28 08:26:04;;;;;;;11.40;9.93;;;7.40;99.90;;;;;;5052304;28;20029;-76
2022/11/28 08:28:30;;;;;;;12.20;9.02;;;7.30;99.90;;;;;;5059388;28;20517;-76
2022/11/28 08:30:56;;;;;;;10.18;9.18;;;7.40;99.90;;;;;;5053207;28;20033;-76
2022/11/28 08:33:23;;;;;;;10.30;9.02;;;7.40;99.90;;;;;;5059584;28;20403;-77
2022/11/28 08:35:50;;;;;;;11.40;9.23;;;7.20;99.90;;;;;;5038943;28;20574;-77
2022/11/28 08:38:16;;;;;;;10.50;9.40;;;7.40;99.90;;;;;;5052136;28;20132;-76
2022/11/28 08:40:41;;;;;;;10.73;8.82;;;7.40;99.90;;;;;;5059537;28;20116;-76
2022/11/28 08:43:08;;;;;;;11.82;9.30;;;7.40;99.90;;;;;;5035300;28;20252;-76
2022/11/28 08:45:36;;;;;;;11.38;9.63;;;7.40;99.90;;;;;;5062117;28;20432;-76
2022/11/28 08:48:02;;;;;;;9.82;8.25;;;7.40;99.90;;;;;;5040196;28;20039;-76
2022/11/28 08:50:27;;;;;;;10.90;8.55;;;7.40;99.90;;;;;;5051583;28;20048;-76
2022/11/28 08:52:53;;;;;;;8.93;8.02;;;8.60;99.90;;;;;;5041523;28;20661;-77
2022/11/28 08:55:18;;;;;;;9.27;7.80;;;8.80;99.90;;;;;;5055865;28;20047;-76
2022/11/28 08:57:44;;;;;;;8.75;7.85;;;7.40;99.90;;;;;;5038074;28;20158;-76
2022/11/28 09:00:10;;;;;;;10.43;7.18;;;8.60;99.90;;;;;;5057486;28;20395;-76
2022/11/28 09:02:36;;;;;;;10.05;7.70;;;7.40;99.90;;;;;;5057691;28;20032;-76
2022/11/28 09:05:01;;;;;;;10.05;8.20;;;7.40;99.90;;;;;;5057568;28;20036;-76
2022/11/28 09:07:27;;;;;;;7.90;6.85;;;7.50;99.90;;;;;;5056470;28;20033;-76
2022/11/28 09:09:53;;;;;;;8.23;7.10;;;7.70;99.90;;;;;;5056542;28;20075;-76
2022/11/28 09:12:18;;;;;;;7.03;6.32;;;7.70;99.90;;;;;;5061487;28;20480;-76
2022/11/28 09:14:44;;;;;;;6.85;6.15;;;7.50;99.90;;;;;;5057609;28;20037;-76
2022/11/28 09:17:09;;;;;;;7.57;6.80;;;7.40;99.90;;;;;;5072657;28;20108;-76
2022/11/28 09:19:35;;;;;;;11.70;9.93;;;8.10;99.90;;;;;;5059414;28;20040;-75
2022/11/28 09:22:01;;;;;;;8.38;6.97;;;8.80;99.90;;;;;;5062917;28;20116;-76
2022/11/28 09:24:26;;;;;;;7.25;6.00;;;7.50;99.90;;;;;;5058214;28;20036;-76
2022/11/28 09:26:52;;;;;;;6.10;5.50;;;9.00;99.90;;;;;;5059477;28;20088;-76
2022/11/28 09:29:17;;;;;;;6.03;5.45;;;7.60;99.90;;;;;;5060130;28;20047;-76
2022/11/28 09:31:43;;;;;;;7.55;6.38;;;7.50;99.90;;;;;;5057271;28;20052;-76
2022/11/28 09:34:09;;;;;;;8.80;7.05;;;7.50;99.90;;;;;;5044095;28;20041;-76
2022/11/28 09:36:34;;;;;;;7.00;6.28;;;7.70;99.90;;;;;;5056432;28;20049;-77
2022/11/28 09:39:00;;;;;;;9.23;7.07;;;7.50;99.90;;;;;;5043174;28;20048;-76
2022/11/28 09:41:48;;;;;;;8.43;6.95;;;7.50;99.90;;;;;;5057879;28;20087;-76
2022/11/28 09:44:21;;;;;;;6.82;6.13;;;7.50;99.90;;;;;;5039901;28;20072;-77
2022/11/28 09:46:50;;;;;;;7.30;6.43;;;8.10;99.90;;;;;;5062725;28;20195;-75
2022/11/28 09:49:31;;;;;;;6.85;6.18;;;7.60;99.90;;;;;;5063543;28;20094;-76
2022/11/28 09:52:09;;;;;;;9.80;6.50;;;7.60;99.90;;;;;;5066419;28;20083;-76
2022/11/28 09:54:51;;;;;;;8.15;7.20;;;7.60;99.90;;;;;;5061859;28;20040;-76
2022/11/28 09:57:35;;;;;;;12.30;7.43;;;8.60;99.90;;;;;;5032828;28;20045;-76
2022/11/28 10:00:02;;;;;;;7.78;6.97;;;7.60;99.90;;;;;;5052936;28;20155;-76
2022/11/28 10:02:42;;;;;;;11.05;8.30;;;7.70;99.90;;;;;;5060346;28;20037;-76
2022/11/28 10:05:23;;;;;;;10.25;8.40;;;7.60;99.90;;;;;;5063623;28;20085;-76
2022/11/28 10:08:46;;;;;;;7.30;6.60;;;7.60;99.90;;;;;;5058744;28;20087;-76
2022/11/28 10:11:42;;;;;;;7.53;6.30;;;7.70;99.90;;;;;;5042426;28;20471;-76
2022/11/28 10:14:08;;;;;;;8.48;6.72;;;7.60;99.90;;;;;;5048189;28;20527;-76
2022/11/28 10:17:01;;;;;;;8.85;7.82;;;7.60;99.90;;;;;;5053263;28;20056;-76
2022/11/28 10:20:04;;;;;;;8.73;6.82;;;7.70;99.90;;;;;;5059838;28;20049;-76
2022/11/28 10:22:45;;;;;;;10.43;8.05;;;7.70;99.90;;;;;;5049987;28;20071;-76
2022/11/28 10:25:33;;;;;;;9.15;6.88;;;7.70;99.90;;;;;;5041204;28;20048;-76
2022/11/28 10:27:58;;;;;;;7.72;6.68;;;7.70;99.90;;;;;;5058314;28;20037;-77
2022/11/28 10:30:27;;;;;;;11.77;7.45;;;8.80;99.90;;;;;;5061719;28;20082;-76
2022/11/28 10:33:21;;;;;;;7.68;6.97;;;7.70;99.90;;;;;;5043936;28;20033;-76
2022/11/28 10:35:54;;;;;;;9.15;6.85;;;7.70;99.90;;;;;;5057933;28;20040;-76
2022/11/28 10:38:24;;;;;;;9.07;6.78;;;7.70;99.90;;;;;;5059377;28;20569;-76
2022/11/28 10:40:57;;;;;;;6.78;6.07;;;7.80;99.90;;;;;;5044183;28;20508;-77
2022/11/28 10:43:46;;;;;;;8.10;6.72;;;7.80;99.90;;;;;;5056244;28;20048;-76
2022/11/28 10:46:24;;;;;;;8.18;7.38;;;7.80;99.90;;;;;;5042984;28;20045;-76
2022/11/28 10:48:50;;;;;;;10.90;8.32;;;7.80;99.90;;;;;;5057525;28;20033;-76
2022/11/28 10:51:28;;;;;;;8.10;7.38;;;7.80;99.90;;;;;;5058223;28;20055;-76
2022/11/28 10:54:31;;;;;;;9.93;7.15;;;7.80;99.90;;;;;;5040294;28;20045;-76
2022/11/28 10:57:16;;;;;;;7.53;6.72;;;7.80;99.90;;;;;;5057191;28;20570;-76
2022/11/28 11:00:03;;;;;;;8.13;6.72;;;7.70;99.90;;;;;;5060523;28;20440;-76
2022/11/28 11:02:53;;;;;;;9.23;7.90;;;7.90;99.90;;;;;;5062042;28;20048;-76
2022/11/28 11:05:31;;;;;;;12.30;7.30;;;7.90;99.90;;;;;;5052406;28;20041;-76
2022/11/28 11:08:21;;;;;;;10.60;7.53;;;8.10;99.90;;;;;;5058000;28;20037;-77
2022/11/28 11:11:04;;;;;;;10.52;7.90;;;7.90;99.90;;;;;;5040391;28;20134;-76
2022/11/28 11:13:32;;;;;;;9.90;8.07;;;7.90;99.90;;;;;;5056229;28;20420;-76
2022/11/28 11:16:04;;;;;;;9.52;7.93;;;7.90;99.90;;;;;;5057296;28;20072;-75
2022/11/28 11:18:33;;;;;;;9.15;7.60;;;7.90;99.90;;;;;;5057880;28;20075;-76
2022/11/28 11:21:16;;;;;;;10.70;7.68;;;7.90;99.90;;;;;;5058957;28;20033;-76
2022/11/28 11:23:43;;;;;;;8.05;7.25;;;8.00;99.90;;;;;;5032835;28;20048;-76
2022/11/28 11:26:32;;;;;;;17.33;11.55;;;8.00;99.90;;;;;;5059328;28;20037;-76
2022/11/28 11:28:58;;;;;;;10.68;8.93;;;8.00;99.90;;;;;;5057196;28;20036;-77
2022/11/28 11:31:30;;;;;;;11.48;7.55;;;8.30;99.90;;;;;;5043409;28;20085;-76
2022/11/28 11:34:05;;;;;;;7.43;6.72;;;8.00;99.90;;;;;;5059852;28;20041;-77
2022/11/28 11:36:34;;;;;;;12.00;8.13;;;8.00;99.90;;;;;;5037871;28;20404;-76
2022/11/28 11:39:11;;;;;;;11.32;7.95;;;8.00;99.90;;;;;;5056974;28;20044;-76
2022/11/28 11:41:41;;;;;;;12.07;8.32;;;8.10;99.90;;;;;;5049802;28;20076;-77
2022/11/28 11:44:13;;;;;;;8.93;7.55;;;8.80;99.90;;;;;;5057684;28;20469;-76
2022/11/28 11:47:04;;;;;;;9.15;8.10;;;8.10;99.90;;;;;;5039091;28;20160;-76
2022/11/28 11:49:39;;;;;;;10.20;7.65;;;8.10;99.90;;;;;;5055476;28;20357;-76
2022/11/28 11:52:11;;;;;;;12.82;9.50;;;8.10;99.90;;;;;;5059230;28;20415;-76
2022/11/28 11:54:56;;;;;;;8.18;7.38;;;8.10;99.90;;;;;;5056486;28;20119;-77
2022/11/28 11:57:24;;;;;;;10.50;6.80;;;8.10;99.90;;;;;;5056999;28;20045;-77
2022/11/28 11:59:56;;;;;;;9.93;7.07;;;8.10;99.90;;;;;;5039600;28;20120;-77
2022/11/28 12:02:27;;;;;;;8.32;7.03;;;7.50;99.90;;;;;;5056358;28;20048;-76
2022/11/28 12:05:03;;;;;;;8.27;7.50;;;8.20;99.90;;;;;;5039329;28;20098;-76
2022/11/28 12:07:39;;;;;;;7.65;6.30;;;8.20;99.90;;;;;;5053508;28;20566;-76
2022/11/28 12:10:10;;;;;;;8.27;7.10;;;8.20;99.90;;;;;;5057318;28;20111;-76
2022/11/28 12:12:36;;;;;;;7.72;6.93;;;8.20;99.90;;;;;;5060047;28;20045;-76
2022/11/28 12:15:03;;;;;;;8.15;7.00;;;8.30;99.90;;;;;;5035580;28;20068;-76
2022/11/28 12:18:00;;;;;;;7.85;6.97;;;8.30;99.90;;;;;;5061093;28;20041;-77
2022/11/28 12:20:38;;;;;;;7.45;6.63;;;8.30;99.90;;;;;;5008820;28;20514;-75
2022/11/28 12:23:10;;;;;;;8.27;6.90;;;8.30;99.90;;;;;;5033872;28;20080;-76
2022/11/28 12:25:49;;;;;;;9.13;8.10;;;8.30;99.90;;;;;;5056250;28;20039;-76
2022/11/28 12:28:38;;;;;;;7.13;6.45;;;8.30;99.90;;;;;;5053585;28;20171;-76
2022/11/28 12:31:04;;;;;;;8.63;7.65;;;8.30;99.90;;;;;;5053188;28;20515;-78
2022/11/28 12:33:46;;;;;;;8.65;7.75;;;8.30;99.90;;;;;;5048746;28;20076;-76
2022/11/28 12:36:28;;;;;;;9.05;6.63;;;9.30;99.90;;;;;;5055307;28;20539;-76
2022/11/28 12:39:09;;;;;;;13.43;8.70;;;8.30;99.90;;;;;;5050722;28;20049;-76
2022/11/28 12:42:08;;;;;;;9.90;7.38;;;9.20;99.90;;;;;;5053054;28;20047;-76
2022/11/28 12:44:50;;;;;;;11.55;8.30;;;8.30;99.90;;;;;;5055138;28;20037;-76
2022/11/28 12:47:39;;;;;;;9.52;8.10;;;8.30;99.90;;;;;;5056443;28;20049;-76
2022/11/28 12:50:23;;;;;;;7.43;6.75;;;8.20;99.90;;;;;;5062282;28;20044;-77
2022/11/28 12:52:51;;;;;;;6.35;5.82;;;8.30;99.90;;;;;;5057717;28;20652;-77
2022/11/28 12:55:24;;;;;;;13.70;12.30;;;8.40;99.90;;;;;;5063668;28;20061;-76
2022/11/28 12:58:00;;;;;;;9.82;7.32;;;8.40;99.90;;;;;;5050997;28;20084;-76
2022/11/28 13:00:27;;;;;;;7.55;6.85;;;8.40;99.90;;;;;;5057283;28;20037;-76
2022/11/28 13:03:18;;;;;;;10.10;7.60;;;8.40;99.90;;;;;;5066391;28;20086;-76
2022/11/28 13:05:50;;;;;;;8.75;7.85;;;8.30;99.90;;;;;;5048039;28;20048;-74
2022/11/28 13:08:26;;;;;;;8.40;7.43;;;8.60;99.90;;;;;;5063036;28;20044;-75
2022/11/28 13:11:11;;;;;;;7.53;6.82;;;8.40;99.90;;;;;;5062087;28;20476;-76
2022/11/28 13:13:48;;;;;;;11.05;7.53;;;8.40;99.90;;;;;;5040562;28;20048;-75